createdAt,value
2023-01-20T00:01:30.523Z,11.15
2023-01-20T00:03:59.619Z,9.80
2023-01-20T00:06:28.843Z,9.55
2023-01-20T00:09:01.220Z,9.25
2023-01-20T00:11:30.157Z,10.48
2023-01-20T00:14:00.031Z,13.10
2023-01-20T00:16:29.067Z,13.48
2023-01-20T00:18:57.299Z,13.43
2023-01-20T00:21:25.673Z,11.75
2023-01-20T00:23:53.907Z,11.68
2023-01-20T00:26:24.935Z,11.85
2023-01-20T00:28:55.501Z,11.20
2023-01-20T00:31:25.710Z,11.07
2023-01-20T00:33:56.245Z,11.40
2023-01-20T00:36:25.948Z,10.25
2023-01-20T00:38:54.778Z,9.40
2023-01-20T00:41:24.919Z,9.15
2023-01-20T00:43:53.295Z,9.20
2023-01-20T00:46:22.936Z,8.63
2023-01-20T00:48:51.413Z,8.40
2023-01-20T00:51:19.981Z,8.25
2023-01-20T00:53:48.387Z,8.07
2023-01-20T00:56:16.672Z,7.38
2023-01-20T00:58:46.365Z,6.72
2023-01-20T01:01:14.817Z,6.30
2023-01-20T01:03:43.164Z,5.25
2023-01-20T01:06:14.299Z,5.05
2023-01-20T01:08:43.449Z,5.03
2023-01-20T01:11:12.842Z,4.95
2023-01-20T01:13:41.853Z,4.80
2023-01-20T01:16:14.475Z,4.90
2023-01-20T01:18:43.272Z,5.07
2023-01-20T01:21:13.380Z,4.60
2023-01-20T01:23:41.767Z,4.35
2023-01-20T01:26:10.572Z,4.18
2023-01-20T01:28:38.866Z,4.32
2023-01-20T01:31:09.142Z,4.45
2023-01-20T01:33:38.898Z,4.47
2023-01-20T01:36:08.469Z,3.95
2023-01-20T01:38:36.820Z,4.40
2023-01-20T01:41:05.040Z,4.40
2023-01-20T01:43:34.822Z,4.38
2023-01-20T01:46:03.687Z,5.05
2023-01-20T01:48:36.267Z,4.10
2023-01-20T01:51:09.942Z,4.70
2023-01-20T01:53:42.297Z,3.95
2023-01-20T01:56:11.868Z,4.47
2023-01-20T01:58:45.830Z,4.00
2023-01-20T02:01:14.550Z,3.88
2023-01-20T02:03:49.689Z,3.83
2023-01-20T02:06:20.811Z,3.90
2023-01-20T02:08:49.873Z,4.07
2023-01-20T02:11:18.112Z,4.38
2023-01-20T02:13:46.680Z,4.60
2023-01-20T02:16:19.414Z,5.15
2023-01-20T02:19:02.840Z,6.15
2023-01-20T02:22:02.179Z,5.88
2023-01-20T02:25:10.489Z,5.63
2023-01-20T02:27:54.214Z,5.95
2023-01-20T02:30:55.670Z,6.82
2023-01-20T02:33:29.862Z,7.65
2023-01-20T02:36:07.922Z,9.52
2023-01-20T02:38:45.267Z,8.70
2023-01-20T02:41:18.931Z,9.23
2023-01-20T02:43:51.331Z,9.02
2023-01-20T02:46:26.522Z,11.60
2023-01-20T02:49:05.012Z,9.82
2023-01-20T02:51:41.840Z,11.20
2023-01-20T02:54:14.472Z,10.75
2023-01-20T02:56:43.982Z,10.27
2023-01-20T02:59:14.877Z,10.90
2023-01-20T03:01:47.668Z,9.75
2023-01-20T03:04:20.918Z,10.57
2023-01-20T03:06:53.491Z,10.43
2023-01-20T03:09:26.822Z,12.05
2023-01-20T03:12:00.051Z,10.43
2023-01-20T03:14:28.903Z,11.27
2023-01-20T03:16:57.341Z,11.23
2023-01-20T03:19:27.038Z,10.50
2023-01-20T03:21:55.386Z,11.98
2023-01-20T03:24:24.939Z,11.45
2023-01-20T03:26:53.343Z,12.02
2023-01-20T03:29:21.797Z,11.98
2023-01-20T03:31:53.845Z,12.10
2023-01-20T03:34:24.686Z,11.77
2023-01-20T03:36:55.224Z,7.82
2023-01-20T03:39:24.862Z,7.85
2023-01-20T03:42:02.356Z,7.20
2023-01-20T03:44:40.676Z,8.23
2023-01-20T03:47:18.106Z,7.30
2023-01-20T03:49:55.593Z,5.97
2023-01-20T03:52:47.773Z,5.72
2023-01-20T03:55:22.478Z,4.88
2023-01-20T03:57:55.950Z,4.13
2023-01-20T04:00:29.519Z,3.72
2023-01-20T04:03:00.544Z,4.40
2023-01-20T04:05:30.277Z,3.50
2023-01-20T04:08:03.383Z,3.72
2023-01-20T04:10:34.321Z,3.95
2023-01-20T04:13:02.606Z,4.75
2023-01-20T04:15:35.522Z,4.47
2023-01-20T04:18:16.213Z,5.82
2023-01-20T04:20:45.639Z,8.10
2023-01-20T04:23:20.804Z,6.22
2023-01-20T04:25:49.251Z,3.83
2023-01-20T04:28:17.470Z,4.15
2023-01-20T04:30:45.852Z,3.85
2023-01-20T04:33:14.129Z,3.33
2023-01-20T04:35:42.413Z,3.70
2023-01-20T04:38:10.764Z,4.05
2023-01-20T04:40:40.526Z,4.22
2023-01-20T04:43:10.000Z,4.43
2023-01-20T04:45:38.432Z,4.28
2023-01-20T04:48:08.245Z,4.03
2023-01-20T04:50:39.528Z,5.03
2023-01-20T04:53:08.018Z,5.50
2023-01-20T04:55:36.281Z,5.75
2023-01-20T04:58:05.878Z,6.22
2023-01-20T05:00:34.324Z,6.07
2023-01-20T05:03:02.976Z,5.43
2023-01-20T05:05:31.207Z,4.60
2023-01-20T05:07:59.687Z,4.78
2023-01-20T05:10:27.907Z,4.18
2023-01-20T05:12:56.202Z,3.83
2023-01-20T05:15:25.876Z,4.38
2023-01-20T05:17:54.257Z,4.13
2023-01-20T05:20:22.541Z,4.47
2023-01-20T05:22:50.782Z,6.30
2023-01-20T05:25:19.029Z,5.32
2023-01-20T05:27:47.337Z,5.63
2023-01-20T05:30:15.982Z,5.20
2023-01-20T05:32:46.136Z,5.80
2023-01-20T05:35:14.656Z,6.55
2023-01-20T05:37:43.053Z,7.07
2023-01-20T05:40:12.910Z,7.22
2023-01-20T05:42:41.275Z,7.35
2023-01-20T05:45:10.311Z,8.20
2023-01-20T05:47:38.594Z,7.40
2023-01-20T05:50:09.107Z,6.88
2023-01-20T05:52:37.485Z,6.18
2023-01-20T05:55:06.265Z,5.60
2023-01-20T05:57:34.427Z,6.47
2023-01-20T06:00:02.743Z,5.40
2023-01-20T06:02:33.258Z,6.05
2023-01-20T06:05:01.679Z,5.53
2023-01-20T06:07:31.764Z,5.07
2023-01-20T06:10:00.198Z,4.82
2023-01-20T06:12:28.497Z,4.85
2023-01-20T06:14:56.771Z,4.75
2023-01-20T06:17:24.959Z,4.38
2023-01-20T06:19:53.340Z,4.38
2023-01-20T06:22:21.716Z,4.05
2023-01-20T06:24:52.077Z,4.43
2023-01-20T06:27:20.724Z,4.20
2023-01-20T06:29:50.768Z,4.55
2023-01-20T06:32:19.083Z,4.35
2023-01-20T06:34:47.371Z,5.00
2023-01-20T06:37:15.640Z,4.68
2023-01-20T06:39:43.913Z,4.63
2023-01-20T06:42:13.558Z,5.20
2023-01-20T06:44:41.973Z,5.15
2023-01-20T06:47:38.295Z,5.45
2023-01-20T06:50:12.573Z,5.50
2023-01-20T06:52:40.810Z,5.05
2023-01-20T06:55:09.793Z,4.88
2023-01-20T06:57:39.233Z,5.13
2023-01-20T07:00:09.125Z,4.60
2023-01-20T07:02:37.347Z,5.50
2023-01-20T07:05:08.071Z,6.00
2023-01-20T07:07:37.723Z,7.38
2023-01-20T07:10:06.999Z,11.43
2023-01-20T07:12:35.263Z,11.88
2023-01-20T07:15:05.707Z,14.30
2023-01-20T07:17:34.009Z,15.23
2023-01-20T07:20:02.311Z,16.15
2023-01-20T07:22:30.608Z,15.85
2023-01-20T07:24:58.863Z,15.43
2023-01-20T07:27:27.160Z,16.88
2023-01-20T07:29:55.514Z,15.75
2023-01-20T07:32:25.003Z,15.13
2023-01-20T07:34:53.389Z,15.50
2023-01-20T07:37:21.628Z,13.65
2023-01-20T07:39:49.905Z,14.88
2023-01-20T07:42:18.172Z,15.25
2023-01-20T07:44:46.444Z,14.57
2023-01-20T07:47:14.656Z,14.55
2023-01-20T07:49:44.275Z,14.68
2023-01-20T07:52:12.597Z,15.10
2023-01-20T07:54:40.838Z,13.40
2023-01-20T07:57:09.787Z,12.98
2023-01-20T07:59:38.051Z,13.77
2023-01-20T08:02:06.373Z,14.00
2023-01-20T08:04:35.412Z,9.45
2023-01-20T08:07:05.171Z,8.20
2023-01-20T08:09:33.747Z,8.00
2023-01-20T08:12:02.401Z,7.50
2023-01-20T08:14:30.634Z,6.70
2023-01-20T08:17:00.098Z,7.18
2023-01-20T08:19:30.644Z,6.82
2023-01-20T08:21:59.006Z,7.35
2023-01-20T08:24:28.730Z,7.45
2023-01-20T08:26:59.055Z,7.85
2023-01-20T08:29:27.411Z,8.48
2023-01-20T08:31:55.707Z,8.73
2023-01-20T08:34:24.011Z,9.18
2023-01-20T08:36:54.074Z,8.48
2023-01-20T08:39:22.880Z,9.85
2023-01-20T08:41:52.454Z,13.75
2023-01-20T08:44:21.467Z,11.52
2023-01-20T08:46:52.539Z,11.93
2023-01-20T08:49:22.713Z,11.43
2023-01-20T08:51:51.415Z,11.60
2023-01-20T08:54:19.682Z,11.98
2023-01-20T08:56:52.622Z,13.32
2023-01-20T08:59:21.606Z,12.10
2023-01-20T09:01:50.021Z,12.70
2023-01-20T09:04:18.386Z,13.40
2023-01-20T09:06:50.217Z,14.48
2023-01-20T09:09:21.023Z,17.17
2023-01-20T09:11:51.749Z,25.48
2023-01-20T09:14:22.677Z,16.48
2023-01-20T09:16:51.350Z,13.68
2023-01-20T09:19:19.728Z,14.68
2023-01-20T09:21:48.043Z,12.63
2023-01-20T09:24:16.478Z,13.73
2023-01-20T09:26:45.249Z,13.48
2023-01-20T09:29:15.359Z,13.77
2023-01-20T09:31:49.836Z,14.20
2023-01-20T09:34:23.109Z,12.38
2023-01-20T09:36:52.427Z,12.18
2023-01-20T09:39:37.809Z,12.57
2023-01-20T09:42:34.346Z,12.82
2023-01-20T09:45:22.598Z,13.85
2023-01-20T09:47:52.516Z,13.32
2023-01-20T09:51:03.567Z,13.77
2023-01-20T09:53:44.072Z,13.65
2023-01-20T09:56:16.489Z,14.73
2023-01-20T09:58:52.688Z,14.55
2023-01-20T10:01:30.723Z,15.07
2023-01-20T10:04:10.727Z,15.43
2023-01-20T10:06:43.722Z,15.10
2023-01-20T10:09:21.899Z,15.40
2023-01-20T10:11:53.370Z,14.00
2023-01-20T10:14:26.963Z,14.95
2023-01-20T10:16:59.293Z,15.05
2023-01-20T10:19:34.817Z,16.17
2023-01-20T10:22:10.661Z,15.48
2023-01-20T10:24:48.339Z,16.05
2023-01-20T10:27:16.824Z,16.83
2023-01-20T10:29:48.813Z,15.35
2023-01-20T10:32:25.758Z,15.10
2023-01-20T10:34:58.059Z,15.23
2023-01-20T10:37:27.802Z,15.80
2023-01-20T10:39:59.603Z,16.20
2023-01-20T10:42:29.233Z,15.65
2023-01-20T10:44:59.592Z,14.93
2023-01-20T10:47:39.835Z,15.70
2023-01-20T10:50:35.589Z,15.85
2023-01-20T10:53:17.457Z,15.55
2023-01-20T10:55:58.990Z,15.93
2023-01-20T10:58:29.044Z,15.48
2023-01-20T11:01:01.147Z,16.38
2023-01-20T11:03:33.767Z,16.88
2023-01-20T11:06:04.503Z,15.85
2023-01-20T11:08:32.980Z,17.42
2023-01-20T11:11:10.119Z,16.80
2023-01-20T11:13:38.398Z,18.02
2023-01-20T11:16:15.066Z,16.13
2023-01-20T11:18:43.937Z,17.98
2023-01-20T11:21:14.562Z,17.67
2023-01-20T11:23:49.400Z,17.48
2023-01-20T11:26:22.323Z,17.30
2023-01-20T11:28:54.699Z,16.83
2023-01-20T11:31:36.604Z,17.67
2023-01-20T11:34:22.829Z,16.60
2023-01-20T11:37:11.095Z,17.83
2023-01-20T11:39:45.504Z,18.55
2023-01-20T11:42:17.409Z,17.90
2023-01-20T11:44:46.405Z,18.90
2023-01-20T11:47:23.857Z,20.35
2023-01-20T11:50:20.420Z,19.90
2023-01-20T11:52:49.960Z,20.30
2023-01-20T11:55:20.657Z,19.00
2023-01-20T11:57:53.850Z,19.25
2023-01-20T12:00:37.197Z,20.45
2023-01-20T12:03:32.689Z,19.42
2023-01-20T12:06:07.560Z,19.30
2023-01-20T12:08:50.190Z,20.75
2023-01-20T12:11:25.411Z,20.00
2023-01-20T12:14:24.765Z,20.77
2023-01-20T12:17:15.453Z,19.27
2023-01-20T12:19:59.008Z,19.83
2023-01-20T12:22:37.295Z,19.33
2023-01-20T12:25:17.257Z,19.85
2023-01-20T12:27:51.172Z,18.88
2023-01-20T12:30:38.193Z,19.27
2023-01-20T12:33:12.110Z,19.70
2023-01-20T12:35:49.106Z,20.65
2023-01-20T12:38:20.567Z,20.73
2023-01-20T12:40:53.852Z,20.92
2023-01-20T12:43:40.746Z,21.20
2023-01-20T12:46:26.045Z,20.20
2023-01-20T12:49:12.831Z,20.63
2023-01-20T12:51:52.151Z,21.98
2023-01-20T12:54:48.012Z,19.23
2023-01-20T12:57:28.352Z,20.25
2023-01-20T13:00:16.438Z,22.40
2023-01-20T13:03:05.016Z,20.90
2023-01-20T13:05:47.016Z,21.42
2023-01-20T13:08:23.216Z,23.13
2023-01-20T13:11:01.072Z,22.63
2023-01-20T13:13:56.049Z,23.42
2023-01-20T13:16:33.615Z,23.15
2023-01-20T13:19:11.640Z,23.98
2023-01-20T13:21:41.811Z,25.02
2023-01-20T13:24:19.090Z,23.52
2023-01-20T13:26:49.574Z,24.38
2023-01-20T13:29:44.011Z,23.48
2023-01-20T13:32:33.925Z,24.45
2023-01-20T13:35:03.722Z,24.52
2023-01-20T13:37:36.359Z,24.23
2023-01-20T13:40:12.864Z,22.98
2023-01-20T13:42:51.848Z,25.05
2023-01-20T13:45:29.054Z,22.10
2023-01-20T13:48:24.710Z,22.20
2023-01-20T13:50:53.877Z,22.02
2023-01-20T13:53:28.911Z,22.15
2023-01-20T13:56:26.085Z,22.98
2023-01-20T13:58:54.629Z,21.98
2023-01-20T14:01:24.673Z,23.75
2023-01-20T14:04:04.170Z,22.23
2023-01-20T14:06:34.080Z,24.08
2023-01-20T14:09:03.555Z,22.48
2023-01-20T14:11:32.274Z,22.80
2023-01-20T14:14:02.919Z,23.08
2023-01-20T14:16:39.167Z,23.70
2023-01-20T14:19:23.185Z,22.67
2023-01-20T14:21:54.100Z,21.42
2023-01-20T14:24:28.882Z,22.67
2023-01-20T14:27:07.736Z,21.52
2023-01-20T14:29:36.027Z,22.25
2023-01-20T14:32:17.298Z,20.52
2023-01-20T14:34:46.133Z,22.17
2023-01-20T14:37:27.240Z,21.13
2023-01-20T14:39:58.393Z,21.55
2023-01-20T14:42:28.875Z,21.65
2023-01-20T14:44:58.406Z,21.80
2023-01-20T14:47:29.034Z,21.38
2023-01-20T14:49:57.600Z,19.80
2023-01-20T14:52:28.745Z,21.98
2023-01-20T14:54:58.574Z,22.77
2023-01-20T14:57:30.040Z,21.65
2023-01-20T15:00:20.782Z,20.25
2023-01-20T15:03:09.461Z,21.55
2023-01-20T15:05:41.582Z,21.48
2023-01-20T15:08:24.331Z,21.27
2023-01-20T15:11:20.568Z,20.58
2023-01-20T15:14:11.940Z,18.67
2023-01-20T15:16:49.173Z,19.15
2023-01-20T15:19:30.559Z,19.30
2023-01-20T15:22:17.752Z,19.58
2023-01-20T15:24:49.399Z,19.75
2023-01-20T15:27:25.626Z,19.30
2023-01-20T15:30:03.819Z,19.00
2023-01-20T15:32:32.235Z,18.45
2023-01-20T15:35:01.685Z,19.80
2023-01-20T15:37:30.202Z,20.77
2023-01-20T15:39:59.430Z,20.63
2023-01-20T15:42:27.730Z,18.95
2023-01-20T15:44:56.005Z,19.67
2023-01-20T15:47:30.852Z,18.60
2023-01-20T15:49:59.385Z,19.58
2023-01-20T15:52:28.996Z,19.50
2023-01-20T15:54:57.335Z,19.92
2023-01-20T15:57:25.914Z,19.27
2023-01-20T15:59:54.172Z,19.83
2023-01-20T16:02:24.236Z,18.77
2023-01-20T16:04:52.502Z,18.92
2023-01-20T16:07:21.602Z,19.40
2023-01-20T16:09:51.171Z,18.95
2023-01-20T16:12:20.087Z,19.08
2023-01-20T16:14:48.750Z,20.10
2023-01-20T16:17:19.232Z,19.38
2023-01-20T16:19:48.062Z,20.70
2023-01-20T16:22:16.423Z,20.15
2023-01-20T16:24:45.403Z,20.33
2023-01-20T16:27:19.970Z,19.45
2023-01-20T16:29:48.910Z,19.25
2023-01-20T16:32:21.829Z,20.05
2023-01-20T16:34:50.707Z,18.55
2023-01-20T16:37:18.969Z,19.13
2023-01-20T16:39:47.619Z,19.55
2023-01-20T16:42:17.969Z,19.30
2023-01-20T16:44:46.292Z,20.45
2023-01-20T16:47:19.679Z,18.33
2023-01-20T16:49:48.050Z,20.17
2023-01-20T16:52:16.414Z,21.02
2023-01-20T16:54:44.726Z,19.48
2023-01-20T16:57:13.000Z,19.90
2023-01-20T16:59:42.569Z,19.20
2023-01-20T17:02:12.004Z,18.63
2023-01-20T17:04:40.454Z,19.40
2023-01-20T17:10:19.160Z,32.20
2023-01-20T17:12:48.997Z,55.10
2023-01-20T17:15:19.181Z,56.03
2023-01-20T17:17:49.731Z,54.13
2023-01-20T17:20:18.642Z,58.08
2023-01-20T17:22:47.463Z,93.05
2023-01-20T17:25:17.941Z,43.95
2023-01-20T17:27:46.443Z,30.77
2023-01-20T17:30:17.144Z,27.17
2023-01-20T17:32:49.453Z,22.50
2023-01-20T17:35:19.160Z,21.25
2023-01-20T17:37:47.711Z,19.52
2023-01-20T17:40:17.070Z,18.05
2023-01-20T17:42:46.464Z,21.50
2023-01-20T17:45:15.240Z,21.83
2023-01-20T17:47:46.129Z,24.23
2023-01-20T17:50:17.068Z,22.33
2023-01-20T17:52:45.624Z,22.70
2023-01-20T17:55:14.483Z,23.92
2023-01-20T17:57:42.923Z,25.55
2023-01-20T18:00:12.806Z,22.95
2023-01-20T18:02:41.133Z,23.20
2023-01-20T18:05:09.803Z,22.13
2023-01-20T18:07:39.742Z,21.02
2023-01-20T18:10:09.342Z,21.48
2023-01-20T18:12:37.737Z,21.92
2023-01-20T18:15:07.439Z,21.25
2023-01-20T18:17:35.937Z,21.13
2023-01-20T18:20:05.685Z,20.65
2023-01-20T18:22:37.194Z,20.58
2023-01-20T18:25:07.903Z,21.20
2023-01-20T18:27:36.355Z,23.42
2023-01-20T18:30:05.719Z,24.40
2023-01-20T18:32:34.348Z,23.65
2023-01-20T18:35:02.680Z,23.20
2023-01-20T18:37:32.299Z,23.02
2023-01-20T18:40:00.707Z,21.00
2023-01-20T18:42:30.542Z,23.42
2023-01-20T18:44:59.041Z,23.27
2023-01-20T18:47:27.381Z,23.33
2023-01-20T18:49:56.578Z,23.33
2023-01-20T18:52:25.490Z,25.95
2023-01-20T18:54:53.909Z,25.27
2023-01-20T18:57:22.263Z,25.60
2023-01-20T18:59:51.950Z,25.27
2023-01-20T19:02:20.760Z,24.85
2023-01-20T19:04:49.485Z,24.30
2023-01-20T19:07:18.115Z,24.33
2023-01-20T19:09:47.667Z,26.05
2023-01-20T19:12:16.316Z,25.25
2023-01-20T19:14:45.042Z,27.48
2023-01-20T19:17:15.026Z,27.17
2023-01-20T19:19:47.876Z,26.45
2023-01-20T19:22:16.696Z,24.38
2023-01-20T19:24:45.156Z,26.98
2023-01-20T19:27:13.655Z,27.17
2023-01-20T19:29:42.098Z,27.92
2023-01-20T19:32:10.824Z,27.23
2023-01-20T19:34:43.654Z,26.42
2023-01-20T19:37:12.140Z,25.88
2023-01-20T19:39:40.693Z,25.27
2023-01-20T19:42:17.783Z,25.17
2023-01-20T19:44:47.376Z,25.63
2023-01-20T19:47:15.819Z,25.13
2023-01-20T19:49:45.666Z,23.15
2023-01-20T19:52:14.092Z,24.00
2023-01-20T19:54:42.732Z,23.10
2023-01-20T19:57:11.676Z,22.77
2023-01-20T19:59:40.899Z,20.45
2023-01-20T20:02:10.326Z,20.67
2023-01-20T20:04:39.524Z,19.08
2023-01-20T20:10:21.857Z,17.67
2023-01-20T20:12:50.486Z,17.63
2023-01-20T20:15:19.166Z,18.02
2023-01-20T20:17:47.559Z,19.35
2023-01-20T20:20:16.607Z,19.35
2023-01-20T20:22:46.454Z,18.48
2023-01-20T20:25:15.002Z,18.67
2023-01-20T20:27:43.555Z,18.48
2023-01-20T20:30:13.144Z,20.50
2023-01-20T20:32:41.557Z,18.85
2023-01-20T20:35:10.502Z,17.98
2023-01-20T20:37:39.063Z,18.42
2023-01-20T20:40:10.862Z,17.10
2023-01-20T20:42:39.393Z,17.52
2023-01-20T20:45:09.192Z,17.92
2023-01-20T20:47:37.677Z,16.92
2023-01-20T20:50:07.971Z,16.90
2023-01-20T20:52:36.494Z,15.00
2023-01-20T20:55:05.771Z,15.52
2023-01-20T20:57:35.657Z,13.40
2023-01-20T21:00:05.178Z,13.30
2023-01-20T21:02:35.004Z,13.48
2023-01-20T21:05:03.426Z,14.00
2023-01-20T21:07:31.903Z,14.55
2023-01-20T21:10:00.703Z,14.23
2023-01-20T21:12:29.449Z,12.60
2023-01-20T21:15:00.109Z,11.57
2023-01-20T21:17:28.551Z,12.10
2023-01-20T21:19:58.728Z,11.15
2023-01-20T21:22:27.113Z,10.95
2023-01-20T21:24:55.563Z,11.32
2023-01-20T21:27:24.001Z,11.13
2023-01-20T21:29:52.615Z,12.13
2023-01-20T21:32:22.388Z,11.98
2023-01-20T21:34:50.856Z,11.50
2023-01-20T21:37:20.519Z,12.73
2023-01-20T21:39:49.008Z,11.68
2023-01-20T21:42:17.749Z,11.05
2023-01-20T21:44:45.255Z,11.38
2023-01-20T21:47:13.741Z,10.02
2023-01-20T21:50:00.762Z,9.77
2023-01-20T21:52:45.201Z,10.48
2023-01-20T21:55:19.064Z,9.80
2023-01-20T21:57:50.163Z,8.45
2023-01-20T22:00:20.498Z,8.68
2023-01-20T22:02:49.038Z,8.30
2023-01-20T22:05:19.309Z,8.48
2023-01-20T22:07:48.404Z,8.60
2023-01-20T22:10:17.735Z,9.73
2023-01-20T22:12:46.341Z,9.43
2023-01-20T22:15:15.272Z,9.05
2023-01-20T22:17:43.645Z,9.18
2023-01-20T22:20:12.763Z,9.52
2023-01-20T22:22:42.539Z,9.57
2023-01-20T22:25:11.408Z,9.15
2023-01-20T22:27:39.739Z,8.73
2023-01-20T22:30:09.386Z,8.98
2023-01-20T22:32:37.651Z,8.80
2023-01-20T22:35:06.727Z,9.68
2023-01-20T22:37:35.032Z,9.23
2023-01-20T22:40:06.236Z,9.75
2023-01-20T22:42:35.503Z,9.75
2023-01-20T22:45:04.068Z,9.75
2023-01-20T22:47:32.382Z,9.93
2023-01-20T22:50:00.741Z,9.93
2023-01-20T22:52:29.082Z,10.20
2023-01-20T22:54:57.463Z,10.43
2023-01-20T22:57:27.132Z,10.23
2023-01-20T22:59:55.686Z,10.20
2023-01-20T23:02:24.084Z,10.93
2023-01-20T23:04:53.091Z,11.43
2023-01-20T23:07:21.956Z,11.70
2023-01-20T23:09:50.543Z,12.38
2023-01-20T23:12:18.926Z,12.15
2023-01-20T23:15:00.827Z,12.43
2023-01-20T23:17:30.641Z,12.02
2023-01-20T23:19:59.568Z,13.20
2023-01-20T23:22:29.947Z,14.05
2023-01-20T23:24:58.159Z,13.52
2023-01-20T23:27:26.536Z,14.02
2023-01-20T23:29:55.973Z,15.10
2023-01-20T23:32:24.272Z,14.25
2023-01-20T23:34:52.562Z,12.68
2023-01-20T23:37:20.854Z,13.75
2023-01-20T23:39:51.956Z,13.75
2023-01-20T23:42:20.919Z,12.05
2023-01-20T23:44:49.068Z,12.18
2023-01-20T23:47:18.802Z,12.60
2023-01-20T23:49:46.965Z,11.98
2023-01-20T23:52:15.390Z,12.55
2023-01-20T23:54:43.561Z,13.00
2023-01-20T23:57:11.853Z,13.98
2023-01-20T23:59:40.079Z,14.35
